createdAt,value
2023-04-16T00:00:22.263Z,23.54492
2023-04-16T00:00:52.259Z,23.66211
2023-04-16T00:01:22.264Z,23.5957
2023-04-16T00:01:52.360Z,23.7041
2023-04-16T00:02:22.401Z,23.76953
2023-04-16T00:02:52.489Z,23.78125
2023-04-16T00:03:22.388Z,23.68555
2023-04-16T00:03:52.592Z,23.68457
2023-04-16T00:04:22.370Z,23.64063
2023-04-16T00:04:52.330Z,23.72559
2023-04-16T00:05:22.251Z,23.72363
2023-04-16T00:05:52.260Z,23.67969
2023-04-16T00:06:22.251Z,23.66797
2023-04-16T00:06:52.256Z,23.66797
2023-04-16T00:07:22.266Z,23.86035
2023-04-16T00:07:52.256Z,23.7627
2023-04-16T00:08:22.258Z,23.97656
2023-04-16T00:08:52.277Z,23.84961
2023-04-16T00:09:22.264Z,23.61426
2023-04-16T00:09:52.261Z,23.6377
2023-04-16T00:10:22.267Z,23.7666
2023-04-16T00:10:52.264Z,23.76758
2023-04-16T00:11:22.269Z,23.59668
2023-04-16T00:11:52.254Z,23.64063
2023-04-16T00:12:22.266Z,23.80078
2023-04-16T00:12:52.257Z,23.7998
2023-04-16T00:13:22.262Z,23.8418
2023-04-16T00:13:52.255Z,24.00293
2023-04-16T00:14:22.263Z,23.58301
2023-04-16T00:14:52.263Z,23.29395
2023-04-16T00:15:22.263Z,23.52051
2023-04-16T00:15:52.264Z,23.59375
2023-04-16T00:16:22.348Z,23.64648
2023-04-16T00:16:52.314Z,23.7959
2023-04-16T00:17:22.290Z,23.71094
2023-04-16T00:17:52.272Z,23.64746
2023-04-16T00:18:22.262Z,23.65918
2023-04-16T00:18:52.266Z,23.90625
2023-04-16T00:19:22.264Z,23.70215
2023-04-16T00:19:52.256Z,23.91504
2023-04-16T00:20:22.260Z,23.99902
2023-04-16T00:20:52.256Z,23.84766
2023-04-16T00:21:22.261Z,23.83691
2023-04-16T00:21:52.255Z,23.76172
2023-04-16T00:22:22.261Z,23.89941
2023-04-16T00:22:52.255Z,23.9209
2023-04-16T00:23:22.262Z,23.83594
2023-04-16T00:23:52.258Z,23.91211
2023-04-16T00:24:22.265Z,23.7832
2023-04-16T00:24:52.261Z,24.16895
2023-04-16T00:25:22.264Z,24.3291
2023-04-16T00:25:52.262Z,24.16895
2023-04-16T00:26:22.259Z,23.93359
2023-04-16T00:26:52.256Z,23.71973
2023-04-16T00:27:22.260Z,23.98633
2023-04-16T00:27:52.257Z,23.8584
2023-04-16T00:28:22.262Z,23.98535
2023-04-16T00:28:52.257Z,24.03711
2023-04-16T00:29:22.274Z,24.0791
2023-04-16T00:29:52.263Z,24.08789
2023-04-16T00:30:22.263Z,23.95898
2023-04-16T00:30:52.296Z,24.24609
2023-04-16T00:31:22.389Z,24.23535
2023-04-16T00:31:52.258Z,24.19043
2023-04-16T00:32:22.336Z,24.10449
2023-04-16T00:32:52.290Z,24.32715
2023-04-16T00:33:22.258Z,24.32715
2023-04-16T00:33:52.258Z,24.28223
2023-04-16T00:34:22.265Z,24.35449
2023-04-16T00:34:52.266Z,24.21484
2023-04-16T00:35:22.264Z,24.43848
2023-04-16T00:35:52.256Z,24.19434
2023-04-16T00:36:22.259Z,24.20703
2023-04-16T00:36:52.263Z,24.22949
2023-04-16T00:37:22.262Z,24.13281
2023-04-16T00:37:52.259Z,24.30566
2023-04-16T00:38:22.261Z,24.28613
2023-04-16T00:38:52.260Z,24.15723
2023-04-16T00:39:22.260Z,23.98535
2023-04-16T00:39:52.266Z,24.41406
2023-04-16T00:40:22.265Z,24.58301
2023-04-16T00:40:52.258Z,24.67773
2023-04-16T00:41:22.259Z,24.63281
2023-04-16T00:41:52.256Z,24.6543
2023-04-16T00:42:22.264Z,24.92969
2023-04-16T00:42:52.262Z,24.92773
2023-04-16T00:43:22.254Z,24.80859
2023-04-16T00:43:52.260Z,24.58398
2023-04-16T00:44:22.257Z,24.80859
2023-04-16T00:44:52.263Z,24.76465
2023-04-16T00:45:22.257Z,24.95703
2023-04-16T00:45:52.273Z,24.8291
2023-04-16T00:46:22.291Z,25.03223
2023-04-16T00:46:52.261Z,24.95703
2023-04-16T00:47:22.283Z,25.0752
2023-04-16T00:47:52.283Z,25.19141
2023-04-16T00:48:22.269Z,25.1377
2023-04-16T00:48:52.266Z,25.03125
2023-04-16T00:49:22.257Z,24.85938
2023-04-16T00:49:52.260Z,24.94531
2023-04-16T00:50:22.254Z,24.85938
2023-04-16T00:50:52.260Z,24.9873
2023-04-16T00:51:22.257Z,25.18945
2023-04-16T00:51:52.264Z,24.95313
2023-04-16T00:52:22.255Z,25.14551
2023-04-16T00:52:52.260Z,25.0918
2023-04-16T00:53:22.254Z,24.99707
2023-04-16T00:53:52.269Z,25.13574
2023-04-16T00:54:22.262Z,24.93164
2023-04-16T00:54:52.273Z,24.71777
2023-04-16T00:55:22.282Z,24.94336
2023-04-16T00:55:52.274Z,25.00781
2023-04-16T00:56:22.318Z,25.05078
2023-04-16T00:56:52.255Z,25.15625
2023-04-16T00:57:22.258Z,25.10156
2023-04-16T00:57:52.263Z,25.12305
2023-04-16T00:58:22.271Z,24.6748
2023-04-16T00:58:52.261Z,24.97363
2023-04-16T00:59:22.264Z,25.10156
2023-04-16T00:59:52.257Z,24.9541
2023-04-16T01:00:22.260Z,24.64453
2023-04-16T01:00:52.265Z,25.03223
2023-04-16T01:01:22.287Z,25.03125
2023-04-16T01:01:52.375Z,25.23145
2023-04-16T01:02:22.355Z,25.20898
2023-04-16T01:02:52.341Z,25.09082
2023-04-16T01:03:22.407Z,25.1543
2023-04-16T01:03:52.305Z,25.30273
2023-04-16T01:04:22.374Z,25.2373
2023-04-16T01:04:52.262Z,25.29102
2023-04-16T01:05:22.262Z,25.17285
2023-04-16T01:05:52.266Z,24.99121
2023-04-16T01:06:22.261Z,25.04688
2023-04-16T01:06:52.258Z,25.08008
2023-04-16T01:07:22.280Z,24.94141
2023-04-16T01:07:52.278Z,25.12402
2023-04-16T01:08:22.256Z,25.23047
2023-04-16T01:08:52.262Z,25.27344
2023-04-16T01:09:22.262Z,25.03809
2023-04-16T01:09:52.263Z,25.1875
2023-04-16T01:10:22.262Z,25.23047
2023-04-16T01:10:52.259Z,24.79102
2023-04-16T01:11:22.268Z,24.83203
2023-04-16T01:11:52.265Z,25.07813
2023-04-16T01:12:22.260Z,25.00488
2023-04-16T01:12:52.270Z,25.03613
2023-04-16T01:13:22.264Z,25.13184
2023-04-16T01:13:52.269Z,25.20605
2023-04-16T01:14:22.260Z,25.1416
2023-04-16T01:14:52.272Z,25.08691
2023-04-16T01:15:22.268Z,25.20313
2023-04-16T01:15:52.272Z,25.12695
2023-04-16T01:16:22.459Z,25.27539
2023-04-16T01:16:52.269Z,25.16797
2023-04-16T01:17:22.277Z,25.14746
2023-04-16T01:17:52.293Z,25.2334
2023-04-16T01:18:22.277Z,25.16992
2023-04-16T01:18:52.264Z,25.33203
2023-04-16T01:19:22.265Z,25.41797
2023-04-16T01:19:52.267Z,25.2373
2023-04-16T01:20:22.275Z,25.18359
2023-04-16T01:20:52.274Z,25.16016
2023-04-16T01:21:22.272Z,25.41602
2023-04-16T01:21:52.268Z,25.23242
2023-04-16T01:22:22.270Z,25.53125
2023-04-16T01:22:52.266Z,25.55176
2023-04-16T01:23:22.271Z,25.59277
2023-04-16T01:23:52.262Z,25.50684
2023-04-16T01:24:22.269Z,25.47559
2023-04-16T01:24:52.277Z,25.29492
2023-04-16T01:25:22.285Z,25.5
2023-04-16T01:25:52.268Z,25.20117
2023-04-16T01:26:22.270Z,25.30957
2023-04-16T01:26:52.269Z,25.27832
2023-04-16T01:27:22.268Z,25.28906
2023-04-16T01:27:52.264Z,25.28027
2023-04-16T01:28:22.277Z,25.38672
2023-04-16T01:28:52.271Z,25.15039
2023-04-16T01:29:22.282Z,25.4375
2023-04-16T01:29:52.271Z,25.74512
2023-04-16T01:30:22.266Z,25.78516
2023-04-16T01:30:52.268Z,25.82617
2023-04-16T01:31:22.284Z,25.5918
2023-04-16T01:31:52.298Z,25.68945
2023-04-16T01:32:22.287Z,25.55176
2023-04-16T01:32:52.315Z,25.66895
2023-04-16T01:33:22.273Z,25.83887
2023-04-16T01:33:52.277Z,25.89258
2023-04-16T01:34:22.269Z,25.80664
2023-04-16T01:34:52.267Z,25.80664
2023-04-16T01:35:22.270Z,25.88086
2023-04-16T01:35:52.262Z,26.03125
2023-04-16T01:36:22.268Z,26.06055
2023-04-16T01:36:52.278Z,26.24121
2023-04-16T01:37:22.270Z,26.27148
2023-04-16T01:37:52.339Z,25.95117
2023-04-16T01:38:22.267Z,26.17773
2023-04-16T01:38:52.273Z,26.06055
2023-04-16T01:39:22.274Z,26.12598
2023-04-16T01:39:52.264Z,26.40234
2023-04-16T01:40:22.275Z,26.1875
2023-04-16T01:40:52.270Z,26.26172
2023-04-16T01:41:22.275Z,26.32617
2023-04-16T01:41:52.274Z,26.23047
2023-04-16T01:42:22.272Z,26.34668
2023-04-16T01:42:52.271Z,26.48535
2023-04-16T01:43:22.281Z,26.40039
2023-04-16T01:43:52.264Z,26.33398
2023-04-16T01:44:22.269Z,26.57715
2023-04-16T01:44:52.267Z,26.51367
2023-04-16T01:45:22.286Z,26.02441
2023-04-16T01:45:52.266Z,26.09082
2023-04-16T01:46:22.291Z,26.04883
2023-04-16T01:46:52.337Z,26.38184
2023-04-16T01:47:22.295Z,26.43457
2023-04-16T01:47:52.311Z,26.66797
2023-04-16T01:48:22.281Z,26.36914
2023-04-16T01:48:52.271Z,26.06152
2023-04-16T01:49:22.271Z,26.33984
2023-04-16T01:49:52.269Z,26.5
2023-04-16T01:50:22.266Z,26.45703
2023-04-16T01:50:52.267Z,26.78711
2023-04-16T01:51:22.269Z,26.4668
2023-04-16T01:51:52.271Z,26.64746
2023-04-16T01:52:22.264Z,26.74219
2023-04-16T01:52:52.271Z,26.59277
2023-04-16T01:53:22.269Z,26.54004
2023-04-16T01:53:52.281Z,26.43457
2023-04-16T01:54:22.270Z,26.50977
2023-04-16T01:54:52.265Z,26.34961
2023-04-16T01:55:22.276Z,26.70313
2023-04-16T01:55:52.265Z,26.87402
2023-04-16T01:56:22.273Z,26.81055
2023-04-16T01:56:52.278Z,26.49219
2023-04-16T01:57:22.274Z,26.46094
2023-04-16T01:57:52.276Z,26.58008
2023-04-16T01:58:22.269Z,26.46289
2023-04-16T01:58:52.279Z,26.7002
2023-04-16T01:59:22.270Z,26.31543
2023-04-16T01:59:52.272Z,26.52051
2023-04-16T02:00:22.267Z,26.24609
2023-04-16T02:00:52.291Z,26.19336
2023-04-16T02:01:22.345Z,26.04395
2023-04-16T02:01:52.344Z,26.06445
2023-04-16T02:02:22.487Z,26.14063
2023-04-16T02:02:52.376Z,26.08594
2023-04-16T02:03:22.549Z,26.25586
2023-04-16T02:03:52.357Z,26.03223
2023-04-16T02:04:22.269Z,26.29883
2023-04-16T02:04:52.269Z,26.27734
2023-04-16T02:05:22.276Z,26.58887
2023-04-16T02:05:52.277Z,26.32129
2023-04-16T02:06:22.277Z,26.09668
2023-04-16T02:06:52.279Z,26.23535
2023-04-16T02:07:22.270Z,26.2998
2023-04-16T02:07:52.267Z,26.26855
2023-04-16T02:08:22.271Z,26.49316
2023-04-16T02:08:52.271Z,26.88867
2023-04-16T02:09:22.272Z,26.54492
2023-04-16T02:09:52.273Z,26.58887
2023-04-16T02:10:22.267Z,26.30273
2023-04-16T02:10:52.271Z,26.01563
2023-04-16T02:11:22.299Z,26.26465
2023-04-16T02:11:52.279Z,26.2002
2023-04-16T02:12:22.277Z,26.35059
2023-04-16T02:12:52.280Z,26.4668
2023-04-16T02:13:22.265Z,26.40137
2023-04-16T02:13:52.266Z,26.47363
2023-04-16T02:14:22.276Z,26.62109
2023-04-16T02:14:52.268Z,26.75977
2023-04-16T02:15:22.263Z,26.13965
2023-04-16T02:15:52.272Z,26.53809
2023-04-16T02:16:22.340Z,26.18555
2023-04-16T02:16:52.380Z,26.26074
2023-04-16T02:17:22.302Z,26.4209
2023-04-16T02:17:52.326Z,26.18555
2023-04-16T02:18:22.268Z,26.10156
2023-04-16T02:18:52.296Z,25.93457
2023-04-16T02:19:22.265Z,25.79785
2023-04-16T02:19:52.265Z,25.83008
2023-04-16T02:20:22.271Z,26.02344
2023-04-16T02:20:52.273Z,26.07715
2023-04-16T02:21:22.267Z,26.06641
2023-04-16T02:21:52.269Z,26.06836
2023-04-16T02:22:22.263Z,26.08984
2023-04-16T02:22:52.270Z,25.71484
2023-04-16T02:23:22.272Z,25.87695
2023-04-16T02:23:52.264Z,25.75
2023-04-16T02:24:22.279Z,25.82715
2023-04-16T02:24:52.266Z,25.82715
2023-04-16T02:25:22.280Z,25.85938
2023-04-16T02:25:52.268Z,25.90332
2023-04-16T02:26:22.275Z,25.94531
2023-04-16T02:26:52.289Z,25.70996
2023-04-16T02:27:22.281Z,25.8623
2023-04-16T02:27:52.266Z,25.71387
2023-04-16T02:28:22.268Z,25.75977
2023-04-16T02:28:52.282Z,25.76172
2023-04-16T02:29:22.270Z,25.44141
2023-04-16T02:29:52.288Z,25.48438
2023-04-16T02:30:22.274Z,25.40039
2023-04-16T02:30:52.268Z,25.29492
2023-04-16T02:31:22.296Z,25.2959
2023-04-16T02:31:52.279Z,25.49023
2023-04-16T02:32:22.335Z,25.36328
2023-04-16T02:32:52.381Z,24.95801
2023-04-16T02:33:22.278Z,25.30469
2023-04-16T02:33:52.265Z,25.09277
2023-04-16T02:34:22.284Z,24.97559
2023-04-16T02:34:52.263Z,25.00684
2023-04-16T02:35:22.269Z,24.84766
2023-04-16T02:35:52.268Z,24.81738
2023-04-16T02:36:22.268Z,24.82813
2023-04-16T02:36:52.263Z,24.92578
2023-04-16T02:37:22.273Z,24.94922
2023-04-16T02:37:52.273Z,24.77637
2023-04-16T02:38:22.270Z,24.68066
2023-04-16T02:38:52.268Z,24.59473
2023-04-16T02:39:22.280Z,24.76465
2023-04-16T02:39:52.266Z,24.72168
2023-04-16T02:40:22.269Z,24.76465
2023-04-16T02:40:52.270Z,24.6377
2023-04-16T02:41:22.273Z,24.50098
2023-04-16T02:41:52.293Z,24.49414
2023-04-16T02:42:22.293Z,24.29395
2023-04-16T02:42:52.269Z,24.19043
2023-04-16T02:43:22.276Z,24.03125
2023-04-16T02:43:52.269Z,24.17188
2023-04-16T02:44:22.273Z,24.11035
2023-04-16T02:44:52.263Z,24.16602
2023-04-16T02:45:22.276Z,23.93164
2023-04-16T02:45:52.296Z,23.84766
2023-04-16T02:46:22.376Z,23.65527
2023-04-16T02:46:52.269Z,23.54883
2023-04-16T02:47:22.291Z,23.79492
2023-04-16T02:47:52.298Z,23.59277
2023-04-16T02:48:22.269Z,23.54199
2023-04-16T02:48:52.295Z,23.68262
2023-04-16T02:49:22.275Z,23.68457
2023-04-16T02:49:52.267Z,23.71875
2023-04-16T02:50:22.270Z,23.64453
2023-04-16T02:50:52.270Z,23.66504
2023-04-16T02:51:22.276Z,23.73047
2023-04-16T02:51:52.309Z,23.43164
2023-04-16T02:52:22.269Z,23.41309
2023-04-16T02:52:52.272Z,23.43652
2023-04-16T02:53:22.275Z,23.26465
2023-04-16T02:53:52.268Z,23.26465
2023-04-16T02:54:22.270Z,23.31836
2023-04-16T02:54:52.271Z,23.14844
2023-04-16T02:55:22.281Z,23.13965
2023-04-16T02:55:52.274Z,23.36719
2023-04-16T02:56:22.276Z,23.24023
2023-04-16T02:56:52.273Z,23.17773
2023-04-16T02:57:22.283Z,22.98535
2023-04-16T02:57:52.271Z,22.92383
2023-04-16T02:58:22.272Z,23.08594
2023-04-16T02:58:52.276Z,23.02051
2023-04-16T02:59:22.284Z,23.05078
2023-04-16T02:59:52.268Z,22.66504
2023-04-16T03:00:22.274Z,22.76465
2023-04-16T03:00:52.273Z,23.04688
2023-04-16T03:01:22.283Z,22.94141
2023-04-16T03:01:52.375Z,22.81445
2023-04-16T03:02:22.313Z,23.00879
2023-04-16T03:02:52.356Z,22.9873
2023-04-16T03:03:22.299Z,22.91992
2023-04-16T03:03:52.310Z,22.79004
2023-04-16T03:04:22.332Z,22.75879
2023-04-16T03:04:52.271Z,22.46973
2023-04-16T03:05:22.270Z,22.50488
2023-04-16T03:05:52.271Z,22.61328
2023-04-16T03:06:22.274Z,22.68848
2023-04-16T03:06:52.273Z,22.79297
2023-04-16T03:07:22.267Z,22.79492
2023-04-16T03:07:52.265Z,22.51758
2023-04-16T03:08:22.273Z,22.52734
2023-04-16T03:08:52.265Z,22.61328
2023-04-16T03:09:22.271Z,22.55957
2023-04-16T03:09:52.281Z,22.62598
2023-04-16T03:10:22.282Z,22.48633
2023-04-16T03:10:52.281Z,22.41406
2023-04-16T03:11:22.275Z,22.2041
2023-04-16T03:11:52.272Z,22.07715
2023-04-16T03:12:22.281Z,22.13184
2023-04-16T03:12:52.278Z,22.19824
2023-04-16T03:13:22.277Z,22.14648
2023-04-16T03:13:52.273Z,22.13867
2023-04-16T03:14:22.273Z,22.30078
2023-04-16T03:14:52.273Z,22.19238
2023-04-16T03:15:22.272Z,22.25586
2023-04-16T03:15:52.322Z,22.31934
2023-04-16T03:16:22.429Z,22.11621
2023-04-16T03:16:52.270Z,22.13965
2023-04-16T03:17:22.314Z,22.20605
2023-04-16T03:17:52.319Z,22.19922
2023-04-16T03:18:22.274Z,21.8125
2023-04-16T03:18:52.276Z,22.00391
2023-04-16T03:19:22.269Z,22.16602
2023-04-16T03:19:52.272Z,22.13477
2023-04-16T03:20:22.271Z,21.98535
2023-04-16T03:20:52.268Z,21.9873
2023-04-16T03:21:22.268Z,22.16113
2023-04-16T03:21:52.269Z,22.07324
2023-04-16T03:22:22.285Z,21.97754
2023-04-16T03:22:52.278Z,22.16211
2023-04-16T03:23:22.270Z,21.89258
2023-04-16T03:23:52.273Z,21.96875
2023-04-16T03:24:22.280Z,22.22852
2023-04-16T03:24:52.299Z,21.9502
2023-04-16T03:25:22.305Z,22.1543
2023-04-16T03:25:52.270Z,22.14355
2023-04-16T03:26:22.274Z,22.11328
2023-04-16T03:26:52.277Z,21.81445
2023-04-16T03:27:22.275Z,22.09766
2023-04-16T03:27:52.278Z,21.67871
2023-04-16T03:28:22.270Z,21.5
2023-04-16T03:28:52.274Z,21.59668
2023-04-16T03:29:22.275Z,21.63086
2023-04-16T03:29:52.271Z,21.83594
2023-04-16T03:30:22.277Z,21.69727
2023-04-16T03:30:52.312Z,21.60352
2023-04-16T03:31:22.300Z,21.49805
2023-04-16T03:31:52.272Z,21.78223
2023-04-16T03:32:22.315Z,21.4082
2023-04-16T03:32:52.332Z,21.32129
2023-04-16T03:33:22.276Z,21.43359
2023-04-16T03:33:52.276Z,21.55078
2023-04-16T03:34:22.284Z,21.66699
2023-04-16T03:34:52.281Z,21.58203
2023-04-16T03:35:22.274Z,21.51563
2023-04-16T03:35:52.273Z,21.57031
2023-04-16T03:36:22.296Z,21.44434
2023-04-16T03:36:52.277Z,21.36035
2023-04-16T03:37:22.276Z,21.2002
2023-04-16T03:37:52.279Z,21.23242
2023-04-16T03:38:22.280Z,21.37109
2023-04-16T03:38:52.282Z,21.26367
2023-04-16T03:39:22.279Z,21.19141
2023-04-16T03:39:52.277Z,21.32324
2023-04-16T03:40:22.288Z,21.30469
2023-04-16T03:40:52.277Z,21.52637
2023-04-16T03:41:22.273Z,21.57617
2023-04-16T03:41:52.294Z,21.45801
2023-04-16T03:42:22.278Z,21.30664
2023-04-16T03:42:52.284Z,21.33887
2023-04-16T03:43:22.294Z,21.40625
2023-04-16T03:43:52.278Z,21.20313
2023-04-16T03:44:22.278Z,21.11133
2023-04-16T03:44:52.278Z,21.09082
2023-04-16T03:45:22.279Z,21.05078
2023-04-16T03:45:52.290Z,20.96484
2023-04-16T03:46:22.301Z,20.69727
2023-04-16T03:46:52.373Z,20.73438
2023-04-16T03:47:22.304Z,20.73535
2023-04-16T03:47:52.342Z,20.69727
2023-04-16T03:48:22.292Z,20.63672
2023-04-16T03:48:52.277Z,20.68164
2023-04-16T03:49:22.281Z,20.88574
2023-04-16T03:49:52.291Z,20.79199
2023-04-16T03:50:22.288Z,20.53418
2023-04-16T03:50:52.278Z,20.53613
2023-04-16T03:51:22.286Z,20.4082
2023-04-16T03:51:52.278Z,20.32129
2023-04-16T03:52:22.283Z,20.25781
2023-04-16T03:52:52.288Z,20.45801
2023-04-16T03:53:22.286Z,20.45605
2023-04-16T03:53:52.308Z,20.51953
2023-04-16T03:54:23.073Z,20.40234
2023-04-16T03:54:52.282Z,20.56641
2023-04-16T03:55:22.288Z,20.74414
2023-04-16T03:55:52.283Z,20.38477
2023-04-16T03:56:22.292Z,20.50098
2023-04-16T03:56:52.277Z,20.41406
2023-04-16T03:57:22.292Z,20.27441
2023-04-16T03:57:52.282Z,20.09277
2023-04-16T03:58:22.292Z,19.84766
2023-04-16T03:58:52.311Z,19.84961
2023-04-16T03:59:22.280Z,20.06641
2023-04-16T03:59:52.280Z,19.99902
2023-04-16T04:00:22.289Z,19.98828
2023-04-16T04:00:52.280Z,20.05469
2023-04-16T04:01:22.287Z,20.0791
2023-04-16T04:01:52.337Z,19.80957
2023-04-16T04:02:22.500Z,19.94824
2023-04-16T04:02:52.499Z,19.94727
2023-04-16T04:03:22.461Z,20.25195
2023-04-16T04:03:52.582Z,20.13477
2023-04-16T04:04:22.397Z,19.96582
2023-04-16T04:04:52.325Z,19.99121
2023-04-16T04:05:22.288Z,20.03809
2023-04-16T04:05:52.279Z,19.75977
2023-04-16T04:06:22.295Z,19.5957
2023-04-16T04:06:52.281Z,19.89844
2023-04-16T04:07:22.285Z,19.94043
2023-04-16T04:07:52.284Z,19.70703
2023-04-16T04:08:22.287Z,18.72656
2023-04-16T04:08:52.290Z,17.31055
2023-04-16T04:09:22.286Z,15.3584
2023-04-16T04:09:52.280Z,14.01074
2023-04-16T04:10:22.283Z,12.7793
2023-04-16T04:10:52.287Z,12.2832
2023-04-16T04:11:22.287Z,11.61914
2023-04-16T04:11:52.285Z,11.27734
2023-04-16T04:12:22.290Z,10.76465
2023-04-16T04:12:52.288Z,10.51367
2023-04-16T04:13:22.282Z,10.4834
2023-04-16T04:13:52.285Z,10.25781
2023-04-16T04:14:22.291Z,10.25391
2023-04-16T04:14:52.311Z,10.1377
2023-04-16T04:15:22.320Z,9.745117
2023-04-16T04:15:52.333Z,9.444336
2023-04-16T04:16:22.341Z,9.273438
2023-04-16T04:16:52.288Z,9.222656
2023-04-16T04:17:22.401Z,9.004883
2023-04-16T04:17:52.336Z,8.600586
2023-04-16T04:18:22.306Z,8.274414
2023-04-16T04:18:52.286Z,8.125
2023-04-16T04:19:22.288Z,8.231445
2023-04-16T04:20:01.190Z,8.27832
2023-04-16T04:20:23.361Z,8.65918
2023-04-16T04:20:52.305Z,8.902344
2023-04-16T04:21:22.299Z,8.745117
2023-04-16T04:21:52.290Z,8.69043
2023-04-16T04:22:22.279Z,8.367188
2023-04-16T04:22:52.288Z,8.380859
2023-04-16T04:23:22.285Z,8.359375
2023-04-16T04:23:53.232Z,8.336914
2023-04-16T04:24:22.297Z,8.328125
2023-04-16T04:24:52.283Z,8.128906
2023-04-16T04:25:22.291Z,7.962891
2023-04-16T04:25:52.319Z,7.831055
2023-04-16T04:26:22.301Z,7.933594
2023-04-16T04:26:52.290Z,7.990234
2023-04-16T04:27:22.293Z,7.964844
2023-04-16T04:27:52.286Z,8.201172
2023-04-16T04:28:22.288Z,8.199219
2023-04-16T04:28:52.282Z,7.96582
2023-04-16T04:29:22.289Z,7.833008
2023-04-16T04:29:52.279Z,7.532227
2023-04-16T04:30:22.284Z,7.447266
2023-04-16T04:30:52.288Z,7.472656
2023-04-16T04:31:22.347Z,7.253906
2023-04-16T04:31:52.382Z,7.300781
2023-04-16T04:32:22.294Z,6.93457
2023-04-16T04:32:52.344Z,7.208008
2023-04-16T04:33:22.286Z,6.84668
2023-04-16T04:33:52.291Z,7.271484
2023-04-16T04:34:22.282Z,7.560547
2023-04-16T04:34:52.287Z,8.229492
2023-04-16T04:35:22.289Z,8.400391
2023-04-16T04:35:52.293Z,9.641602
2023-04-16T04:36:22.280Z,10.86133
2023-04-16T04:36:52.291Z,11.73047
2023-04-16T04:37:22.285Z,12.6123
2023-04-16T04:37:52.291Z,13.37988
2023-04-16T04:38:22.334Z,13.92383
2023-04-16T04:38:52.295Z,14.49316
2023-04-16T04:39:22.308Z,14.66602
2023-04-16T04:39:52.283Z,15.09863
2023-04-16T04:40:22.353Z,15.68652
2023-04-16T04:40:52.299Z,15.5293
2023-04-16T04:41:22.294Z,16.15625
2023-04-16T04:41:52.289Z,16.30078
2023-04-16T04:42:22.296Z,16.05273
2023-04-16T04:42:52.285Z,15.89453
2023-04-16T04:43:22.288Z,16.05566
2023-04-16T04:43:52.284Z,15.87012
2023-04-16T04:44:22.291Z,15.24023
2023-04-16T04:44:52.289Z,14.00391
2023-04-16T04:45:22.305Z,13.11719
2023-04-16T04:45:52.326Z,11.61523
2023-04-16T04:46:22.396Z,10.22266
2023-04-16T04:46:52.295Z,9.174805
2023-04-16T04:47:22.316Z,8.506836
2023-04-16T04:47:52.323Z,7.956055
2023-04-16T04:48:22.290Z,7.55957
2023-04-16T04:48:52.290Z,7.304688
2023-04-16T04:49:22.295Z,7.036133
2023-04-16T04:49:52.292Z,6.77832
2023-04-16T04:50:22.300Z,6.405273
2023-04-16T04:50:52.295Z,5.896484
2023-04-16T04:51:22.309Z,5.745117
2023-04-16T04:51:52.306Z,5.648438
2023-04-16T04:52:22.292Z,5.348633
2023-04-16T04:52:52.292Z,5.321289
2023-04-16T04:53:22.297Z,5.016602
2023-04-16T04:53:52.300Z,5.067383
2023-04-16T04:54:22.306Z,4.672852
2023-04-16T04:54:52.287Z,4.529297
2023-04-16T04:55:22.300Z,4.918945
2023-04-16T04:55:55.693Z,4.813477
2023-04-16T04:56:23.308Z,5.577148
2023-04-16T04:56:52.290Z,5.254883
2023-04-16T04:57:22.295Z,5.035156
2023-04-16T04:57:52.289Z,5.488281
2023-04-16T04:58:22.293Z,5.655273
2023-04-16T04:58:52.293Z,5.639648
2023-04-16T04:59:22.296Z,5.514648
2023-04-16T04:59:52.292Z,5.569336
2023-04-16T05:00:22.294Z,5.331055
2023-04-16T05:00:52.318Z,5.251953
2023-04-16T05:01:22.321Z,5.355469
2023-04-16T05:01:52.320Z,5.886719
2023-04-16T05:02:22.406Z,5.94043
2023-04-16T05:02:52.428Z,5.959961
2023-04-16T05:03:22.485Z,5.957031
2023-04-16T05:03:52.308Z,5.764648
2023-04-16T05:04:22.296Z,6.045898
2023-04-16T05:04:52.317Z,6.03418
2023-04-16T05:05:22.352Z,6
2023-04-16T05:05:52.298Z,5.727539
2023-04-16T05:06:22.299Z,5.448242
2023-04-16T05:06:52.296Z,5.19043
2023-04-16T05:07:22.297Z,4.978516
2023-04-16T05:07:52.314Z,5.175781
2023-04-16T05:08:22.304Z,5.298828
2023-04-16T05:08:52.298Z,5.376953
2023-04-16T05:09:22.325Z,5.410156
2023-04-16T05:09:52.304Z,5.682617
2023-04-16T05:10:22.316Z,5.814453
2023-04-16T05:10:52.301Z,5.915039
2023-04-16T05:11:22.299Z,5.459961
2023-04-16T05:11:52.303Z,5.202148
2023-04-16T05:12:22.305Z,4.991211
2023-04-16T05:12:52.302Z,4.597656
2023-04-16T05:13:22.304Z,4.648438
2023-04-16T05:13:52.320Z,4.435547
2023-04-16T05:14:22.303Z,4.255859
2023-04-16T05:14:52.302Z,4.257813
2023-04-16T05:15:22.295Z,4.305664
2023-04-16T05:15:52.317Z,4.193359
2023-04-16T05:16:22.347Z,4.011719
2023-04-16T05:16:52.330Z,4.30957
2023-04-16T05:17:22.303Z,4.43457
2023-04-16T05:17:52.356Z,5.047852
2023-04-16T05:18:22.321Z,4.893555
2023-04-16T05:18:52.308Z,4.630859
2023-04-16T05:19:22.306Z,4.301758
2023-04-16T05:19:52.323Z,4.24707
2023-04-16T05:20:22.297Z,4.463867
2023-04-16T05:20:52.301Z,4.600586
2023-04-16T05:21:22.309Z,4.802734
2023-04-16T05:21:52.300Z,4.631836
2023-04-16T05:22:22.302Z,4.598633
2023-04-16T05:22:52.304Z,4.427734
2023-04-16T05:23:22.390Z,4.507813
2023-04-16T05:23:52.312Z,4.632813
2023-04-16T05:24:22.300Z,4.711914
2023-04-16T05:24:52.314Z,4.517578
2023-04-16T05:25:22.302Z,4.370117
2023-04-16T05:25:52.299Z,4.360352
2023-04-16T05:26:22.301Z,4.007813
2023-04-16T05:26:52.307Z,3.930664
2023-04-16T05:27:22.307Z,3.989258
2023-04-16T05:27:52.304Z,4.000977
2023-04-16T05:28:22.312Z,4.207031
2023-04-16T05:28:52.306Z,4.113281
2023-04-16T05:29:22.308Z,4.626953
2023-04-16T05:29:52.313Z,4.75
2023-04-16T05:30:22.304Z,4.700195
2023-04-16T05:30:52.356Z,4.539063
2023-04-16T05:31:22.371Z,4.461914
2023-04-16T05:31:52.309Z,3.857422
2023-04-16T05:32:22.342Z,4.251953
2023-04-16T05:32:52.395Z,3.829102
2023-04-16T05:33:22.308Z,3.707031
2023-04-16T05:33:52.310Z,3.790039
2023-04-16T05:34:22.308Z,3.895508
2023-04-16T05:34:52.318Z,3.710938
2023-04-16T05:35:22.306Z,3.575195
2023-04-16T05:35:52.304Z,3.324219
2023-04-16T05:36:22.312Z,3.371094
2023-04-16T05:36:52.307Z,3.625
2023-04-16T05:37:22.310Z,3.408203
2023-04-16T05:37:52.318Z,3.075195
2023-04-16T05:38:22.309Z,3.180664
2023-04-16T05:38:52.310Z,2.893555
2023-04-16T05:39:22.301Z,3.157227
2023-04-16T05:39:52.311Z,3.62793
2023-04-16T05:40:22.300Z,3.523438
2023-04-16T05:40:52.308Z,3.075195
2023-04-16T05:41:22.302Z,3.260742
2023-04-16T05:41:52.306Z,3.435547
2023-04-16T05:42:22.302Z,2.961914
2023-04-16T05:42:52.308Z,3.183594
2023-04-16T05:43:22.299Z,2.816406
2023-04-16T05:43:52.310Z,2.979492
2023-04-16T05:44:22.309Z,2.930664
2023-04-16T05:44:52.331Z,2.999023
2023-04-16T05:45:22.302Z,2.595703
2023-04-16T05:45:52.320Z,2.459961
2023-04-16T05:46:22.324Z,2.541992
2023-04-16T05:46:52.308Z,2.068359
2023-04-16T05:47:22.335Z,1.907227
2023-04-16T05:47:52.353Z,2.09375
2023-04-16T05:48:22.302Z,2.418945
2023-04-16T05:48:52.304Z,2.520508
2023-04-16T05:49:22.318Z,2.87793
2023-04-16T05:49:52.310Z,2.681641
2023-04-16T05:50:22.318Z,2.160156
2023-04-16T05:50:52.310Z,2.126953
2023-04-16T05:51:22.310Z,1.941406
2023-04-16T05:51:52.305Z,2.670898
2023-04-16T05:52:22.319Z,2.357422
2023-04-16T05:52:52.308Z,1.998047
2023-04-16T05:53:22.312Z,2.080078
2023-04-16T05:53:52.312Z,2.37207